Latest Weather Observations for Armidale Airport

IDN60801

Issued at 3:52 pm EST Saturday 2 July 2022 (issued every 10 minutes, with the page automatically refreshed every 10 minutes)

About weather observations | Map of weather stations | Latest weather observations for NSW | Other Formats
Station Details ID: 056238 Name: ARMIDALE AIRPORT AWS Lat: -30.53 Lon: 151.62 Height: 1079.0 m
Data from the previous 72 hours. | See also: Recent months at Armidale Airport
Date/Time
EST
Temp
°C
App
Temp
°C
Dew
Point
°C
Rel
Hum
%
Delta-T
°C
Wind Press
QNH
hPa
Press
MSL
hPa
Rain since
9am
mm
Dir  Spd
km/h
Gust
km/h
Spd
kts
Gust
kts
02/03:30pm 11.6 9.3 10.5 93 0.6 E 13 17 7 9 1017.0 1017.1 0.2
02/03:00pm 11.2 8.0 10.0 92 0.6 E 17 22 9 12 1017.4 1017.4 0.2
02/02:30pm 11.8 9.7 11.0 95 0.4 E 13 17 7 9 1017.6 1017.7 0.2
02/02:00pm 10.8 8.5 10.6 99 0.1 ESE 13 17 7 9 1017.6 1017.7 0.2
02/01:37pm 11.4 10.5 11.2 99 0.1 ESE 7 13 4 7 1017.8 1017.9 0.2
02/01:30pm 10.5 8.9 10.3 99 0.1 SE 9 11 5 6 1018.0 1018.1 0.2
02/01:00pm 10.7 9.8 10.5 99 0.1 SE 6 11 3 6 1018.6 1018.7 0.2
02/12:30pm 10.1 9.0 10.1 100 0.0 SE 6 9 3 5 1018.9 1019.0 0.2
02/12:00pm 9.4 8.2 9.4 100 0.0 NE 6 9 3 5 1019.5 1019.6 0.2
02/11:30am 9.0 6.3 9.0 100 0.0 ENE 13 15 7 8 1019.6 1019.7 0.2
02/11:00am 8.3 4.3 8.3 100 0.0 ENE 19 22 10 12 1019.7 1019.8 0.2
02/10:30am 8.0 3.7 8.0 100 0.0 ENE 20 24 11 13 1020.0 1020.2 0.2
02/10:00am 7.9 3.6 7.9 100 0.0 ENE 20 24 11 13 1020.3 1020.4 0.2
02/09:30am 7.6 4.2 7.6 100 0.0 ENE 15 17 8 9 1020.5 1020.6 0.2
02/09:00am 7.5 4.8 7.5 100 0.0 ENE 11 13 6 7 1020.5 1020.6 14.2
02/08:32am 7.1 4.3 7.1 100 0.0 ENE 11 15 6 8 1020.6 1020.7 14.2
02/08:30am 7.1 4.3 7.1 100 0.0 ENE 11 15 6 8 1020.6 1020.7 14.2
02/08:00am 6.9 4.9 6.9 100 0.0 ESE 7 9 4 5 1020.6 1020.7 14.0
02/07:30am 6.9 4.5 6.9 100 0.0 ESE 9 13 5 7 1020.7 1020.9 13.6
02/07:23am 6.8 4.0 6.8 100 0.0 ESE 11 15 6 8 1020.5 1020.6 13.6
02/07:00am 6.9 4.5 6.9 100 0.0 SSE 9 11 5 6 1020.7 1020.9 13.2
02/06:47am 6.9 6.2 6.9 100 0.0 CALM 0 0 0 0 1020.5 1020.6 12.8
02/06:30am 7.1 6.0 7.1 100 0.0 SSE 2 7 1 4 1020.4 1020.5 12.6
02/06:00am 6.8 4.7 6.8 100 0.0 SSE 7 9 4 5 1020.4 1020.5 12.0
02/05:58am 6.9 4.9 6.9 100 0.0 SSE 7 9 4 5 1020.4 1020.5 11.8
02/05:39am 6.8 4.7 6.8 100 0.0 SSW 7 9 4 5 1020.1 1020.3 11.6
02/05:30am 6.8 4.7 6.8 100 0.0 SW 7 7 4 4 1019.9 1020.1 11.6
02/05:00am 6.8 5.3 6.8 100 0.0 ESE 4 7 2 4 1020.1 1020.3 10.6
02/04:41am 6.8 4.4 6.8 100 0.0 ESE 9 11 5 6 1019.7 1019.8 10.2
02/04:30am 6.7 4.2 6.7 100 0.0 ESE 9 11 5 6 1019.7 1019.8 10.2
02/04:00am 6.9 4.5 6.9 100 0.0 ESE 9 13 5 7 1019.9 1020.1 9.6
02/03:30am 6.9 4.5 6.9 100 0.0 ESE 9 13 5 7 1019.9 1020.1 9.4
02/03:00am 6.7 3.5 6.7 100 0.0 E 13 15 7 8 1020.0 1020.2 9.0
02/02:30am 6.7 3.5 6.7 100 0.0 E 13 17 7 9 1020.1 1020.3 8.8
02/02:00am 6.8 3.6 6.8 100 0.0 E 13 19 7 10 1020.7 1020.9 7.8
02/01:30am 6.8 3.6 6.8 100 0.0 E 13 17 7 9 1020.8 1021.0 7.4
02/01:21am 6.9 3.7 6.9 100 0.0 ESE 13 19 7 10 1020.8 1021.0 7.2
02/01:11am 6.9 3.3 6.9 100 0.0 E 15 19 8 10 1020.8 1021.0 7.0
02/01:00am 6.9 3.7 6.9 100 0.0 ESE 13 15 7 8 1021.0 1021.2 7.0
02/12:35am 7.0 3.8 7.0 100 0.0 E 13 17 7 9 1021.3 1021.4 6.4
02/12:30am 7.0 3.8 7.0 100 0.0 E 13 17 7 9 1021.3 1021.4 6.4
02/12:14am 7.0 4.2 7.0 100 0.0 E 11 17 6 9 1021.4 1021.5 6.2
02/12:00am 7.1 4.0 7.1 100 0.0 E 13 17 7 9 1021.5 1021.7 6.2
 
Date/Time
EST
Temp
°C
App
Temp
°C
Dew
Point
°C
Rel
Hum
%
Delta-T
°C
Wind Press
QNH
hPa
Press
MSL
hPa
Rain since
9am
mm
Dir  Spd
km/h
Gust
km/h
Spd
kts
Gust
kts
01/11:30pm 7.1 4.3 7.1 100 0.0 ESE 11 15 6 8 1021.7 1021.9 5.8
01/11:00pm 7.1 3.6 7.1 100 0.0 E 15 19 8 10 1021.4 1021.5 5.6
01/10:45pm 7.2 4.1 7.2 100 0.0 E 13 19 7 10 1021.6 1021.8 5.6
01/10:37pm 7.2 4.1 7.2 100 0.0 E 13 15 7 8 1022.2 1022.5 5.6
01/10:30pm 7.3 4.6 7.3 100 0.0 E 11 15 6 8 1022.1 1022.3 5.4
01/10:01pm 7.3 4.2 7.3 100 0.0 E 13 17 7 9 1022.1 1022.3 5.0
01/10:00pm 7.3 4.2 7.3 100 0.0 E 13 17 7 9 1022.1 1022.3 5.0
01/09:30pm 7.5 4.5 7.5 100 0.0 ESE 13 17 7 9 1021.9 1022.1 4.6
01/09:00pm 7.5 4.1 7.5 100 0.0 ESE 15 19 8 10 1021.9 1022.1 4.4
01/08:30pm 7.6 4.6 7.6 100 0.0 ESE 13 15 7 8 1022.2 1022.5 4.2
01/08:00pm 7.5 4.5 7.5 100 0.0 ESE 13 15 7 8 1022.6 1022.8 3.8
01/07:57pm 7.5 4.5 7.5 100 0.0 ESE 13 15 7 8 1022.5 1022.7 3.8
01/07:30pm 7.6 4.6 7.6 100 0.0 ESE 13 17 7 9 1022.1 1022.3 3.6
01/07:00pm 7.6 4.2 7.6 100 0.0 ESE 15 20 8 11 1021.5 1021.7 3.2
01/06:30pm 8.0 5.1 8.0 100 0.0 E 13 17 7 9 1021.9 1022.1 2.8
01/06:20pm 8.0 5.5 8.0 100 0.0 E 11 15 6 8 1022.2 1022.5 2.6
01/06:12pm 8.0 5.1 8.0 100 0.0 E 13 15 7 8 1022.1 1022.3 2.4
01/06:00pm 8.0 5.5 8.0 100 0.0 ESE 11 15 6 8 1022.1 1022.3 2.4
01/05:39pm 8.1 5.6 8.1 100 0.0 E 11 13 6 7 1022.0 1022.2 2.4
01/05:30pm 8.1 5.2 8.1 100 0.0 E 13 15 7 8 1021.8 1022.0 2.2
01/05:23pm 8.2 5.3 8.2 100 0.0 ENE 13 17 7 9 1021.8 1022.0 2.2
01/05:00pm 8.3 5.4 8.3 100 0.0 ENE 13 15 7 8 1021.7 1021.9 2.2
01/04:30pm 8.5 6.5 8.5 100 0.0 ENE 9 13 5 7 1022.0 1022.2 1.8
01/04:14pm 8.7 6.7 8.7 100 0.0 E 9 11 5 6 1021.8 1022.0 1.8
01/04:08pm 8.7 6.7 8.7 100 0.0 E 9 13 5 7 1021.6 1021.8 1.8
01/04:00pm 8.8 6.4 8.8 100 0.0 E 11 13 6 7 1021.6 1021.8 1.8
01/03:56pm 8.9 7.0 8.9 100 0.0 ESE 9 11 5 6 1021.9 1022.1 1.8
01/03:30pm 9.0 8.8 9.0 100 0.0 CALM 0 0 0 0 1021.5 1021.7 1.6
01/03:04pm 9.0 8.0 9.0 100 0.0 WNW 4 9 2 5 1021.6 1021.8 0.8
01/03:00pm 9.1 8.5 9.1 100 0.0 NNW 2 7 1 4 1021.7 1021.9 0.8
01/02:46pm 9.4 7.6 9.3 99 0.1 NNE 9 13 5 7 1021.4 1021.5 0.6
01/02:30pm 10.1 8.8 10.0 99 0.1 E 7 11 4 6 1021.7 1021.9 0.2
01/02:00pm 10.9 9.1 9.5 91 0.7 SSE 9 13 5 7 1021.7 1021.9 0.0
01/01:30pm 11.1 9.3 9.4 89 0.9 SE 9 11 5 6 1022.2 1022.5 0.0
01/01:00pm 11.3 9.5 9.4 88 1.0 ESE 9 13 5 7 1021.8 1022.0 0.0
01/12:30pm 11.3 9.9 9.4 88 1.0 ESE 7 11 4 6 1022.2 1022.5 0.0
01/12:00pm 11.0 8.8 9.4 90 0.8 ENE 11 15 6 8 1022.8 1023.0 0.0
01/11:30am 10.5 8.7 9.4 93 0.6 E 9 13 5 7 1023.6 1023.8 0.0
01/11:00am 10.1 7.5 9.3 95 0.4 NE 13 17 7 9 1023.7 1023.9 0.0
01/10:30am 9.5 6.9 9.2 98 0.2 ENE 13 17 7 9 1024.2 1024.5 0.0
01/10:00am 9.1 6.0 9.0 99 0.1 ENE 15 17 8 9 1024.2 1024.5 0.0
01/09:30am 8.7 5.9 8.6 99 0.1 ENE 13 15 7 8 1024.5 1024.3 0.0
01/09:00am 7.8 4.8 7.8 100 0.0 ENE 13 17 7 9 1024.4 1024.2 0.0
01/08:30am 7.2 4.1 7.2 100 0.0 ENE 13 17 7 9 1024.1 1024.0 0.0
01/08:00am 6.6 3.0 6.6 100 0.0 ENE 15 17 8 9 1024.1 1024.0 0.0
01/07:30am 6.2 2.5 6.2 100 0.0 E 15 17 8 9 1024.4 1024.2 0.0
01/07:00am 6.0 3.0 6.0 100 0.0 E 11 13 6 7 1024.1 1024.0 0.0
01/06:30am 5.6 2.9 5.6 100 0.0 E 9 13 5 7 1023.9 1023.7 0.0
01/06:00am 5.9 2.9 5.9 100 0.0 E 11 15 6 8 1023.9 1023.7 0.0
01/05:30am 6.4 3.5 6.4 100 0.0 ESE 11 15 6 8 1023.6 1023.4 0.0
01/05:00am 5.9 2.5 5.9 100 0.0 E 13 15 7 8 1023.5 1023.3 0.0
01/04:30am 5.7 1.9 5.7 100 0.0 E 15 17 8 9 1022.9 1022.7 0.0
01/04:00am 6.6 3.7 6.6 100 0.0 E 11 13 6 7 1023.4 1023.2 0.0
01/03:30am 6.4 2.7 6.4 100 0.0 E 15 17 8 9 1023.2 1023.1 0.0
01/03:00am 6.2 2.5 6.2 100 0.0 E 15 19 8 10 1023.6 1023.4 0.0
01/02:30am 6.3 2.6 6.3 100 0.0 E 15 17 8 9 1023.7 1023.5 0.0
01/02:00am 6.1 2.4 6.1 100 0.0 E 15 17 8 9 1023.7 1023.5 0.0
01/01:30am 5.8 2.0 5.8 100 0.0 E 15 17 8 9 1024.0 1023.9 0.0
01/01:00am 5.9 2.1 5.9 100 0.0 E 15 17 8 9 1024.4 1024.2 0.0
01/12:30am 6.1 2.4 6.1 100 0.0 E 15 17 8 9 1024.4 1024.2 0.0
01/12:00am 5.9 2.5 5.9 100 0.0 E 13 13 7 7 1024.5 1024.3 0.0
 
Date/Time
EST
Temp
°C
App
Temp
°C
Dew
Point
°C
Rel
Hum
%
Delta-T
°C
Wind Press
QNH
hPa
Press
MSL
hPa
Rain since
9am
mm
Dir  Spd
km/h
Gust
km/h
Spd
kts
Gust
kts
30/11:30pm 5.6 2.5 5.6 100 0.0 E 11 15 6 8 1024.7 1024.5 0.0
30/11:00pm 5.5 2.0 5.5 100 0.0 E 13 15 7 8 1024.4 1024.2 0.0
30/10:30pm 5.0 1.4 4.9 99 0.0 E 13 15 7 8 1024.5 1024.3 0.0
30/10:00pm 5.4 2.2 5.3 99 0.0 E 11 13 6 7 1024.9 1024.8 0.0
30/09:30pm 5.4 2.6 5.3 99 0.0 E 9 11 5 6 1025.0 1024.9 0.0
30/09:00pm 6.6 4.4 6.2 97 0.2 SE 7 9 4 5 1024.6 1024.4 0.0
30/08:30pm 7.0 4.9 5.9 93 0.5 ESE 6 7 3 4 1024.2 1024.1 0.0
30/08:00pm 7.9 5.9 6.4 90 0.7 SSE 6 7 3 4 1024.2 1024.1 0.0
30/07:30pm 8.0 5.5 6.5 90 0.7 SSE 9 11 5 6 1023.7 1023.5 0.0
30/07:00pm 8.5 6.4 6.6 88 0.9 S 7 9 4 5 1023.7 1023.5 0.0
30/06:30pm 8.2 5.8 6.8 91 0.7 S 9 11 5 6 1023.4 1023.2 0.0
30/06:00pm 8.0 5.8 6.0 87 1.0 SSW 7 7 4 4 1023.0 1022.8 0.0
30/05:30pm 8.7 6.5 6.0 83 1.3 SW 7 9 4 5 1023.1 1022.9 0.0
30/05:00pm 9.2 7.2 6.1 81 1.5 WSW 6 7 3 4 1023.0 1022.8 0.0
30/04:30pm 9.9 7.3 6.1 77 1.9 WSW 9 13 5 7 1023.0 1022.8 0.0
30/04:00pm 11.3 9.4 7.4 77 2.0 WSW 7 9 4 5 1023.0 1022.8 0.0
30/03:30pm 10.7 8.8 7.4 80 1.7 S 7 9 4 5 1022.7 1022.5 0.0
30/03:00pm 11.3 9.4 6.8 74 2.3 SW 6 13 3 7 1022.8 1022.6 0.0
30/02:30pm 12.2 10.7 8.3 77 2.0 W 6 11 3 6 1022.9 1022.7 0.0
30/02:00pm 11.7 8.8 8.0 78 1.9 NW 13 17 7 9 1023.2 1023.1 0.0
30/01:30pm 11.0 8.0 7.7 80 1.7 WNW 13 17 7 9 1023.5 1023.3 0.0
30/01:00pm 10.7 7.7 7.6 81 1.6 W 13 17 7 9 1023.7 1023.5 0.0
30/12:30pm 11.0 7.4 8.4 84 1.4 W 17 22 9 12 1024.1 1024.0 0.0
30/12:00pm 10.5 6.4 7.9 84 1.3 W 19 26 10 14 1024.7 1024.5 0.0
30/11:30am 10.2 6.8 7.6 84 1.3 NW 15 20 8 11 1024.7 1024.5 0.0
30/11:00am 9.7 6.8 8.1 90 0.8 WNW 13 17 7 9 1024.9 1024.8 0.0
30/10:30am 9.2 6.7 8.0 92 0.6 W 11 17 6 9 1025.2 1025.1 0.0
30/10:00am 8.6 6.0 7.7 94 0.5 WNW 11 13 6 7 1025.5 1025.3 0.0
30/09:30am 8.1 5.9 8.0 99 0.1 WNW 9 13 5 7 1025.4 1025.2 0.0
30/09:00am 7.6 5.7 7.5 99 0.0 NW 7 11 4 6 1025.6 1025.4 0.0
30/08:30am 7.1 4.7 7.0 99 0.0 WNW 9 13 5 7 1025.5 1025.3 0.0
30/08:00am 6.4 3.8 6.3 99 0.0 W 9 13 5 7 1025.1 1025.0 0.0
30/07:30am 5.7 3.0 5.6 99 0.0 W 9 9 5 5 1024.8 1024.6 0.0
30/07:00am 5.2 3.0 5.2 100 0.0 W 6 9 3 5 1023.9 1023.7 0.0
30/06:30am 5.1 3.6 5.1 100 0.0 WNW 2 11 1 6 1024.2 1024.1 0.0
30/06:00am 4.7 3.1 4.7 100 0.0 WNW 2 6 1 3 1023.7 1023.5 0.0
30/05:30am 4.3 1.9 4.2 99 0.0 WNW 6 7 3 4 1023.5 1023.3 0.0
30/05:00am 4.5 1.6 4.4 99 0.0 W 9 11 5 6 1023.6 1023.4 0.0
30/04:30am 5.0 1.8 5.0 100 0.0 W 11 15 6 8 1023.1 1022.9 0.0
30/04:00am 4.9 2.0 4.8 99 0.0 W 9 11 5 6 1022.4 1022.1 0.0
30/03:30am 5.0 2.7 4.9 99 0.0 NW 6 7 3 4 1022.2 1022.0 0.0
30/03:00am 5.0 2.1 4.9 99 0.0 NNE 9 13 5 7 1021.9 1021.7 0.0
30/02:30am 5.7 3.4 5.6 99 0.0 N 7 9 4 5 1022.1 1021.9 0.0
30/02:00am 5.4 3.2 5.3 99 0.0 NNW 6 7 3 4 1023.4 1023.2 0.0
30/01:30am 5.3 2.9 5.2 99 0.0 NNW 7 11 4 6 1024.0 1023.9 0.0
30/01:00am 6.0 3.4 5.9 99 0.0 ENE 9 11 5 6 1023.1 1022.9 0.0
30/12:30am 6.3 4.1 6.2 99 0.0 N 7 9 4 5 1023.9 1023.7 0.0
30/12:00am 6.2 5.3 6.1 99 0.0 CALM 0 0 0 0 1024.2 1024.1 0.0
 
Date/Time
EST
Temp
°C
App
Temp
°C
Dew
Point
°C
Rel
Hum
%
Delta-T
°C
Wind Press
QNH
hPa
Press
MSL
hPa
Rain since
9am
mm
Dir  Spd
km/h
Gust
km/h
Spd
kts
Gust
kts
29/11:30pm 5.5 3.3 5.4 99 0.0 WNW 6 7 3 4 1024.5 1024.3 0.0
29/11:00pm 5.3 2.9 5.2 99 0.0 NE 7 9 4 5 1024.4 1024.2 0.0
29/10:30pm 5.5 2.8 5.4 99 0.0 NNE 9 9 5 5 1024.6 1024.4 0.0
29/10:00pm 6.3 4.7 6.2 99 0.0 NE 4 7 2 4 1024.2 1024.1 0.0
29/09:30pm 5.9 3.8 5.6 98 0.1 NNE 6 7 3 4 1024.1 1024.0 0.0
29/09:00pm 6.2 3.4 5.3 94 0.4 NE 9 11 5 6 1024.2 1024.1 0.0
29/08:30pm 6.9 4.8 5.7 92 0.6 NNE 6 9 3 5 1024.7 1024.5 0.0
29/08:00pm 6.9 4.6 5.5 91 0.7 NNE 7 7 4 4 1024.7 1024.5 0.0
29/07:30pm 7.3 5.2 5.6 89 0.8 N 6 7 3 4 1024.6 1024.4 0.0
29/07:00pm 7.8 6.4 5.6 86 1.0 NW 2 7 1 4 1024.7 1024.5 0.0
29/06:30pm 7.9 5.7 5.5 85 1.1 WNW 6 9 3 5 1024.4 1024.2 0.0
29/06:00pm 8.0 5.6 5.3 83 1.3 W 7 9 4 5 1024.2 1024.1 0.0
29/05:30pm 8.1 5.8 5.0 81 1.5 W 6 6 3 3 1023.7 1023.5 0.0
29/05:00pm 8.6 5.9 5.5 81 1.5 W 9 13 5 7 1023.9 1023.7 0.0
29/04:30pm 9.3 5.8 5.5 77 1.8 W 13 15 7 8 1023.7 1023.5 0.0
29/04:00pm 10.2 6.9 6.2 76 2.0 W 13 17 7 9 1023.7 1023.5 0.0

Other formats

Comma delimited format used in spreadsheet applications
http://www.bom.gov.au/fwo/IDN60801/IDN60801.95773.axf

JavaScript Object Notation format (JSON) in row-major order
http://www.bom.gov.au/fwo/IDN60801/IDN60801.95773.json

Data quality

Most of these data are generated automatically and are frequently updated. Quality checks on data are not normally performed. It is possible for incorrect values to appear. Refer to information at About Latest Weather Observations and please check the disclaimer before using these data.